Kezdőlap
METAR-TAF:

METAR-TAF

Repülőterek :

Maun, Botswana

földrajzi szélesség: 19-59S, földrajzi hosszúság: 023-25E, magasság: 945 m

Jelenlegi meteorológiai megfigyelések

A jelentés 13 perccel ezelõtt készült, 20:00 UTC
Különbözõ irányokból fújó szél 2 kt
Hőmérséklet 15°C
Páratartalom 31%
Légköri nyomás 1020 hPa
Látótávolság: 7000 m

METAR: FBMN 192000Z VRB02KT 7000 NSC 15/M02 Q1020

Idő: 22:13 (20:13 UTC)

Előrejelzés

A jelentés 4 órával és 13 perccel ezelõtt készült, 16:00 UTC
Az előrejelzés 19-én 18 óra UTC és 20-én 18 óra UTC között érvényes
Kelet-délkeleti szél 4 kt
Látótávolság 10 km, vagy több
felhőtlen 1500 m magasságban, és nincs gomolyfelhõ
20-én 06 óra UTC és 20-én 08 óra UTC között fokozatosan kialakuló
Észak-északkeleti szél 5 kt

TAF: FBMN 191600Z 1918/2018 11004KT CAVOK BECMG 2006/2008 03005KT

Meteorológiai megfigyelések és előrejelzések több, mint 4000 repülőtéren (METAR és TAF jelentéseket).

A térképen piros és sárga pontok jelzik az elérhető meteorológiai állomásokat.

Mozgassa az egeret a pont fölött, hogy megjelenjen az állomás neve.

Azután kattintson az időjárási megfigyelések és előrejelzések megtekintéséhez.

A térkép megváltoztatása: kattintson a fekete keresztel jelölt zöld gombra ráközelítéshez, a vonallal jelölt zöld gombra távolításhoz, vagy a zöld nyilakra a szomszédos térképek eléréséhez.


METAR-TAF: